createdAt,value
2022-11-19T00:05:09.325Z,23.75
2022-11-19T00:11:14.438Z,23.05
2022-11-19T00:17:17.160Z,21.90
2022-11-19T00:23:19.417Z,22.45
2022-11-19T00:29:21.689Z,20.73
2022-11-19T00:35:23.858Z,21.33
2022-11-19T00:41:25.932Z,20.97
2022-11-19T00:47:28.169Z,19.70
2022-11-19T00:53:30.318Z,19.83
2022-11-19T00:59:32.533Z,19.73
2022-11-19T01:05:34.804Z,19.83
2022-11-19T01:11:38.430Z,21.77
2022-11-19T01:17:40.624Z,22.70
2022-11-19T01:23:43.692Z,23.63
2022-11-19T01:29:45.831Z,25.10
2022-11-19T01:35:59.203Z,22.57
2022-11-19T01:42:01.484Z,25.15
2022-11-19T01:48:27.479Z,24.65
2022-11-19T01:54:39.719Z,24.83
2022-11-19T02:00:42.240Z,24.00
2022-11-19T02:06:45.800Z,24.40
2022-11-19T02:13:29.514Z,23.90
2022-11-19T02:20:01.926Z,24.23
2022-11-19T02:26:37.945Z,25.88
2022-11-19T02:32:59.248Z,24.80
2022-11-19T02:39:06.906Z,23.70
2022-11-19T02:45:46.144Z,23.05
2022-11-19T02:51:49.817Z,23.40
2022-11-19T02:57:59.093Z,22.30
2022-11-19T03:04:20.033Z,24.20
2022-11-19T03:10:27.736Z,26.42
2022-11-19T03:16:42.458Z,25.00
2022-11-19T03:22:56.297Z,25.20
2022-11-19T03:29:02.233Z,28.67
2022-11-19T03:35:09.164Z,27.02
2022-11-19T03:41:14.580Z,27.00
2022-11-19T03:47:20.587Z,25.17
2022-11-19T03:53:23.062Z,25.60
2022-11-19T03:59:29.632Z,24.63
2022-11-19T04:05:32.178Z,24.05
2022-11-19T04:11:34.555Z,22.30
2022-11-19T04:17:36.761Z,21.95
2022-11-19T04:23:39.085Z,20.08
2022-11-19T04:29:41.397Z,20.48
2022-11-19T04:35:46.555Z,20.02
2022-11-19T04:41:48.775Z,19.30
2022-11-19T04:47:50.718Z,18.77
2022-11-19T04:53:53.182Z,18.70
2022-11-19T04:59:55.281Z,16.48
2022-11-19T05:05:57.671Z,14.43
2022-11-19T05:11:59.924Z,15.65
2022-11-19T05:18:02.437Z,16.95
2022-11-19T05:24:04.886Z,15.43
2022-11-19T05:30:07.738Z,14.23
2022-11-19T05:42:12.137Z,15.40
2022-11-19T05:48:14.329Z,14.13
2022-11-19T05:54:16.662Z,12.98
2022-11-19T06:00:19.099Z,13.18
2022-11-19T06:06:21.730Z,10.65
2022-11-19T06:18:26.247Z,13.20
2022-11-19T06:24:28.767Z,10.48
2022-11-19T06:30:31.023Z,9.00
2022-11-19T06:36:39.081Z,10.07
2022-11-19T06:42:48.406Z,8.43
2022-11-19T06:48:53.024Z,9.18
2022-11-19T06:54:55.509Z,8.07
2022-11-19T07:00:58.126Z,8.60
2022-11-19T07:07:00.564Z,8.45
2022-11-19T07:13:02.927Z,9.13
2022-11-19T07:19:07.747Z,8.57
2022-11-19T07:25:12.877Z,7.88
2022-11-19T07:31:15.398Z,6.32
2022-11-19T07:37:17.609Z,6.20
2022-11-19T07:43:19.702Z,5.97
2022-11-19T07:49:22.269Z,5.70
2022-11-19T07:55:24.828Z,6.28
2022-11-19T08:01:27.466Z,6.38
2022-11-19T08:07:29.718Z,6.28
2022-11-19T08:13:32.415Z,6.18
2022-11-19T08:19:34.489Z,5.32
2022-11-19T08:25:37.318Z,6.28
2022-11-19T08:31:40.864Z,5.72
2022-11-19T08:37:43.386Z,5.53
2022-11-19T08:49:47.717Z,12.25
2022-11-19T08:55:52.758Z,5.30
2022-11-19T09:01:54.960Z,9.23
2022-11-19T09:07:57.195Z,5.65
2022-11-19T09:13:59.489Z,5.40
2022-11-19T09:20:02.031Z,4.18
2022-11-19T09:32:11.282Z,5.07
2022-11-19T09:38:13.669Z,4.63
2022-11-19T09:44:34.558Z,5.20
2022-11-19T09:51:00.486Z,4.78
2022-11-19T09:57:07.396Z,4.60
2022-11-19T10:03:16.115Z,4.30
2022-11-19T10:09:18.410Z,4.30
2022-11-19T10:15:23.536Z,3.95
2022-11-19T10:21:54.721Z,4.45
2022-11-19T10:28:12.453Z,3.60
2022-11-19T10:34:19.566Z,4.32
2022-11-19T10:40:24.616Z,4.32
2022-11-19T10:46:28.905Z,4.78
2022-11-19T10:52:42.323Z,4.20
2022-11-19T10:58:52.524Z,4.95
2022-11-19T11:05:13.258Z,5.10
2022-11-19T11:11:51.042Z,4.20
2022-11-19T11:18:09.193Z,3.63
2022-11-19T11:24:13.440Z,3.38
2022-11-19T11:30:17.757Z,4.25
2022-11-19T11:36:23.385Z,4.68
2022-11-19T11:42:28.938Z,3.58
2022-11-19T11:48:37.814Z,4.68
2022-11-19T11:55:15.038Z,3.95
2022-11-19T12:01:20.672Z,3.67
2022-11-19T12:08:00.266Z,3.88
2022-11-19T12:14:12.785Z,3.03
2022-11-19T12:20:39.826Z,4.13
2022-11-19T12:27:08.482Z,4.15
2022-11-19T12:33:21.025Z,3.72
2022-11-19T12:39:36.998Z,5.20
2022-11-19T12:45:51.259Z,4.55
2022-11-19T12:52:04.129Z,4.47
2022-11-19T12:58:16.843Z,4.75
2022-11-19T13:04:28.415Z,4.65
2022-11-19T13:10:38.590Z,4.30
2022-11-19T13:16:42.472Z,5.00
2022-11-19T13:22:47.747Z,5.47
2022-11-19T13:29:08.014Z,5.32
2022-11-19T13:35:37.850Z,5.63
2022-11-19T13:42:05.145Z,5.25
2022-11-19T13:48:25.181Z,8.98
2022-11-19T13:54:33.406Z,9.70
2022-11-19T14:00:36.771Z,13.93
2022-11-19T14:07:03.188Z,11.32
2022-11-19T14:13:43.016Z,8.43
2022-11-19T14:20:08.723Z,7.78
2022-11-19T14:26:42.705Z,7.70
2022-11-19T14:32:47.719Z,7.55
2022-11-19T14:39:01.720Z,8.00
2022-11-19T14:45:03.827Z,9.15
2022-11-19T14:51:15.034Z,9.20
2022-11-19T14:57:41.915Z,10.50
2022-11-19T15:03:50.448Z,11.48
2022-11-19T15:10:02.338Z,11.18
2022-11-19T15:16:07.489Z,10.55
2022-11-19T15:23:05.149Z,10.93
2022-11-19T15:29:25.852Z,9.02
2022-11-19T15:35:52.629Z,10.27
2022-11-19T15:42:01.224Z,12.38
2022-11-19T15:48:12.997Z,12.45
2022-11-19T15:54:16.020Z,18.70
2022-11-19T16:00:23.079Z,13.27
2022-11-19T16:06:29.458Z,18.08
2022-11-19T16:12:50.141Z,16.27
2022-11-19T16:18:52.678Z,16.95
2022-11-19T16:25:04.796Z,15.80
2022-11-19T16:31:07.539Z,22.98
2022-11-19T16:43:19.530Z,26.60
2022-11-19T16:49:33.808Z,23.23
2022-11-19T16:55:43.097Z,21.38
2022-11-19T17:01:52.427Z,21.00
2022-11-19T17:08:06.772Z,22.08
2022-11-19T17:14:41.301Z,24.10
2022-11-19T17:20:48.664Z,22.88
2022-11-19T17:26:51.707Z,24.38
2022-11-19T17:32:57.205Z,24.70
2022-11-19T17:38:59.490Z,21.52
2022-11-19T17:45:05.983Z,22.77
2022-11-19T17:51:13.151Z,22.15
2022-11-19T17:57:15.531Z,23.20
2022-11-19T18:03:18.408Z,22.30
2022-11-19T18:09:20.938Z,25.42
2022-11-19T18:21:27.689Z,25.70
2022-11-19T18:27:30.162Z,25.63
2022-11-19T18:33:33.418Z,26.02
2022-11-19T18:39:35.607Z,27.17
2022-11-19T18:45:37.891Z,26.52
2022-11-19T18:51:40.151Z,26.87
2022-11-19T18:57:42.319Z,25.75
2022-11-19T19:03:44.976Z,22.20
2022-11-19T19:09:47.406Z,20.55
2022-11-19T19:15:49.896Z,22.40
2022-11-19T19:21:52.906Z,19.08
2022-11-19T19:27:57.253Z,21.52
2022-11-19T19:33:59.735Z,17.80
2022-11-19T19:40:01.916Z,16.38
2022-11-19T19:46:06.110Z,14.32
2022-11-19T19:52:09.306Z,13.45
2022-11-19T19:58:11.385Z,11.65
2022-11-19T20:04:13.923Z,9.67
2022-11-19T20:10:16.202Z,11.20
2022-11-19T20:16:21.379Z,10.43
2022-11-19T20:22:24.318Z,11.48
2022-11-19T20:28:27.219Z,10.23
2022-11-19T20:34:29.272Z,11.45
2022-11-19T20:40:31.307Z,9.93
2022-11-19T20:46:33.454Z,12.40
2022-11-19T20:52:35.463Z,10.77
2022-11-19T20:58:37.547Z,12.23
2022-11-19T21:04:39.581Z,13.13
2022-11-19T21:10:41.637Z,13.00
2022-11-19T21:16:43.807Z,12.97
2022-11-19T21:22:48.387Z,12.65
2022-11-19T21:28:56.226Z,13.07
2022-11-19T21:34:58.459Z,12.60
2022-11-19T21:41:00.842Z,12.27
2022-11-19T21:47:04.275Z,12.55
2022-11-19T21:53:11.406Z,12.05
2022-11-19T21:59:13.692Z,12.90
2022-11-19T22:05:16.060Z,12.45
2022-11-19T22:11:30.874Z,11.07
2022-11-19T22:17:33.385Z,12.18
2022-11-19T22:23:35.706Z,12.00
2022-11-19T22:29:38.057Z,11.70
2022-11-19T22:35:40.321Z,13.13
2022-11-19T22:41:42.624Z,11.63
2022-11-19T22:47:44.881Z,12.02
2022-11-19T22:53:47.536Z,12.47
2022-11-19T22:59:49.538Z,12.93
2022-11-19T23:05:53.404Z,13.03
2022-11-19T23:12:14.277Z,12.48
2022-11-19T23:18:16.573Z,12.80
2022-11-19T23:24:18.704Z,14.02
2022-11-19T23:30:20.807Z,14.33
2022-11-19T23:36:29.084Z,14.85
2022-11-19T23:42:31.174Z,15.15
2022-11-19T23:48:34.297Z,15.68
2022-11-19T23:54:36.361Z,14.70
